createdAt,value
2022-08-19T00:01:42.559Z,17.88
2022-08-19T00:04:12.521Z,18.27
2022-08-19T00:06:40.508Z,19.33
2022-08-19T00:09:10.511Z,17.95
2022-08-19T00:11:38.467Z,18.67
2022-08-19T00:14:10.712Z,18.65
2022-08-19T00:16:42.186Z,19.13
2022-08-19T00:19:09.032Z,16.60
2022-08-19T00:21:40.598Z,17.25
2022-08-19T00:24:09.059Z,16.30
2022-08-19T00:26:36.746Z,16.88
2022-08-19T00:29:05.165Z,17.23
2022-08-19T00:31:32.387Z,17.13
2022-08-19T00:33:59.217Z,17.05
2022-08-19T00:36:26.325Z,17.80
2022-08-19T00:38:53.328Z,16.38
2022-08-19T00:41:22.425Z,15.68
2022-08-19T00:44:07.564Z,16.75
2022-08-19T00:46:37.528Z,22.95
2022-08-19T00:49:10.642Z,16.90
2022-08-19T00:51:37.296Z,16.40
2022-08-19T00:54:04.301Z,17.30
2022-08-19T00:56:31.925Z,18.00
2022-08-19T00:58:59.902Z,17.10
2022-08-19T01:01:27.067Z,17.45
2022-08-19T01:03:57.043Z,16.88
2022-08-19T01:06:26.050Z,17.27
2022-08-19T01:08:52.574Z,17.15
2022-08-19T01:11:19.017Z,17.15
2022-08-19T01:13:49.899Z,17.38
2022-08-19T01:16:20.198Z,17.83
2022-08-19T01:18:47.138Z,19.37
2022-08-19T01:21:23.425Z,20.48
2022-08-19T01:23:49.981Z,20.98
2022-08-19T01:26:20.084Z,31.02
2022-08-19T01:28:48.707Z,29.45
2022-08-19T01:31:27.088Z,24.38
2022-08-19T01:33:57.395Z,22.25
2022-08-19T01:36:37.042Z,25.00
2022-08-19T01:39:08.172Z,20.83
2022-08-19T01:41:35.478Z,23.30
2022-08-19T01:44:17.996Z,22.10
2022-08-19T01:46:46.641Z,25.55
2022-08-19T01:49:13.261Z,23.90
2022-08-19T01:51:40.555Z,22.80
2022-08-19T01:54:12.539Z,25.35
2022-08-19T01:56:39.578Z,23.60
2022-08-19T01:59:13.139Z,22.02
2022-08-19T02:01:39.669Z,27.27
2022-08-19T02:04:06.758Z,23.70
2022-08-19T02:06:34.129Z,23.60
2022-08-19T02:09:01.091Z,30.42
2022-08-19T02:11:34.410Z,25.10
2022-08-19T02:14:08.758Z,21.92
2022-08-19T02:16:37.597Z,26.92
2022-08-19T02:19:04.389Z,27.95
2022-08-19T02:21:31.254Z,28.17
2022-08-19T02:23:58.422Z,25.13
2022-08-19T02:26:24.883Z,31.60
2022-08-19T02:28:51.309Z,25.40
2022-08-19T02:31:21.836Z,28.05
2022-08-19T02:33:48.988Z,30.63
2022-08-19T02:36:20.652Z,34.83
2022-08-19T02:38:54.314Z,26.40
2022-08-19T02:41:26.813Z,33.35
2022-08-19T02:44:27.607Z,29.40
2022-08-19T02:46:51.690Z,23.20
2022-08-19T02:49:19.348Z,25.65
2022-08-19T02:51:46.922Z,25.63
2022-08-19T02:54:14.414Z,24.77
2022-08-19T02:56:42.639Z,27.38
2022-08-19T02:59:11.890Z,25.42
2022-08-19T03:01:41.553Z,25.20
2022-08-19T03:04:10.649Z,24.57
2022-08-19T03:06:38.851Z,26.95
2022-08-19T03:09:05.354Z,28.90
2022-08-19T03:11:33.570Z,29.10
2022-08-19T03:14:01.085Z,28.67
2022-08-19T03:16:33.395Z,24.25
2022-08-19T03:19:01.569Z,24.98
2022-08-19T03:21:30.664Z,26.55
2022-08-19T03:24:03.756Z,24.02
2022-08-19T03:26:30.799Z,23.60
2022-08-19T03:28:58.436Z,26.25
2022-08-19T03:31:41.919Z,23.73
2022-08-19T03:34:27.176Z,21.63
2022-08-19T03:36:55.672Z,20.10
2022-08-19T03:39:23.726Z,25.42
2022-08-19T03:42:32.154Z,22.63
2022-08-19T03:44:43.168Z,22.02
2022-08-19T03:47:09.613Z,25.15
2022-08-19T03:49:36.167Z,26.23
2022-08-19T03:52:06.461Z,22.70
2022-08-19T03:54:33.002Z,23.63
2022-08-19T03:56:59.457Z,25.17
2022-08-19T03:59:32.518Z,22.40
2022-08-19T04:02:02.268Z,27.17
2022-08-19T04:04:29.798Z,24.33
2022-08-19T04:06:58.570Z,26.92
2022-08-19T04:09:26.224Z,27.23
2022-08-19T04:11:54.977Z,25.88
2022-08-19T04:14:25.624Z,24.48
2022-08-19T04:16:52.907Z,23.15
2022-08-19T04:19:19.805Z,25.55
2022-08-19T04:21:51.551Z,22.65
2022-08-19T04:24:19.791Z,21.75
2022-08-19T04:26:46.907Z,22.85
2022-08-19T04:29:25.590Z,23.77
2022-08-19T04:31:54.473Z,22.70
2022-08-19T04:34:24.372Z,28.55
2022-08-19T04:36:52.301Z,22.50
2022-08-19T04:39:45.391Z,25.73
2022-08-19T04:42:31.126Z,24.52
2022-08-19T04:44:57.934Z,22.63
2022-08-19T04:47:47.820Z,25.80
2022-08-19T04:50:12.228Z,23.33
2022-08-19T04:52:43.737Z,22.67
2022-08-19T04:55:12.132Z,23.52
2022-08-19T04:57:41.070Z,20.60
2022-08-19T05:00:11.884Z,24.10
2022-08-19T05:02:39.158Z,23.85
2022-08-19T05:05:07.447Z,22.42
2022-08-19T05:07:34.211Z,22.25
2022-08-19T05:10:00.649Z,23.25
2022-08-19T05:12:29.304Z,23.75
2022-08-19T05:14:57.802Z,22.17
2022-08-19T05:17:27.922Z,22.70
2022-08-19T05:20:15.001Z,23.52
2022-08-19T05:22:44.026Z,25.05
2022-08-19T05:25:14.273Z,24.20
2022-08-19T05:27:42.360Z,22.40
2022-08-19T05:30:09.999Z,24.13
2022-08-19T05:32:36.481Z,24.40
2022-08-19T05:35:03.368Z,29.77
2022-08-19T05:37:29.900Z,23.02
2022-08-19T05:39:56.760Z,26.88
2022-08-19T05:42:24.048Z,27.17
2022-08-19T05:44:51.823Z,27.17
2022-08-19T05:47:20.818Z,23.30
2022-08-19T05:49:50.769Z,21.25
2022-08-19T05:52:18.806Z,22.10
2022-08-19T05:54:48.646Z,21.73
2022-08-19T05:57:19.715Z,21.48
2022-08-19T05:59:49.144Z,22.35
2022-08-19T06:02:15.717Z,25.70
2022-08-19T06:04:43.748Z,21.38
2022-08-19T06:07:12.114Z,27.42
2022-08-19T06:09:40.532Z,24.20
2022-08-19T06:12:07.455Z,23.95
2022-08-19T06:14:37.531Z,26.60
2022-08-19T06:17:09.182Z,23.80
2022-08-19T06:19:40.721Z,23.13
2022-08-19T06:22:08.398Z,23.30
2022-08-19T06:24:36.129Z,23.73
2022-08-19T06:27:06.406Z,22.98
2022-08-19T06:29:33.452Z,25.42
2022-08-19T06:32:01.992Z,20.83
2022-08-19T06:34:30.330Z,20.80
2022-08-19T06:37:00.124Z,21.58
2022-08-19T06:39:29.552Z,27.50
2022-08-19T06:41:59.726Z,20.95
2022-08-19T06:44:35.233Z,20.42
2022-08-19T06:47:14.311Z,21.60
2022-08-19T06:49:42.138Z,21.55
2022-08-19T06:52:09.767Z,20.40
2022-08-19T06:54:55.418Z,20.63
2022-08-19T06:57:23.987Z,20.70
2022-08-19T06:59:50.486Z,19.73
2022-08-19T07:04:48.260Z,20.33
2022-08-19T07:07:21.736Z,24.58
2022-08-19T07:09:52.258Z,22.13
2022-08-19T07:12:33.856Z,21.70
2022-08-19T07:15:02.139Z,22.45
2022-08-19T07:17:28.821Z,21.55
2022-08-19T07:19:56.107Z,22.17
2022-08-19T07:22:25.545Z,21.50
2022-08-19T07:24:53.529Z,21.23
2022-08-19T07:27:24.457Z,22.08
2022-08-19T07:29:56.094Z,24.80
2022-08-19T07:32:27.353Z,23.30
2022-08-19T07:34:54.329Z,21.53
2022-08-19T07:37:20.802Z,21.63
2022-08-19T07:39:47.768Z,23.25
2022-08-19T07:42:14.805Z,24.80
2022-08-19T07:44:42.357Z,23.40
2022-08-19T07:47:48.906Z,23.00
2022-08-19T07:50:09.050Z,24.00
2022-08-19T07:52:37.170Z,27.13
2022-08-19T07:55:05.306Z,23.77
2022-08-19T07:57:31.951Z,25.02
2022-08-19T07:59:58.498Z,22.33
2022-08-19T08:02:24.949Z,23.90
2022-08-19T08:05:09.979Z,22.77
2022-08-19T08:07:55.118Z,23.38
2022-08-19T08:10:21.659Z,24.02
2022-08-19T08:13:09.538Z,23.92
2022-08-19T08:15:42.809Z,23.58
2022-08-19T08:18:10.366Z,24.02
2022-08-19T08:20:36.831Z,23.70
2022-08-19T08:23:22.191Z,24.65
2022-08-19T08:25:49.838Z,23.52
2022-08-19T08:28:18.129Z,22.83
2022-08-19T08:30:46.714Z,23.52
2022-08-19T08:35:46.569Z,22.15
2022-08-19T08:38:14.381Z,22.42
2022-08-19T08:40:49.559Z,24.60
2022-08-19T08:43:27.747Z,22.30
2022-08-19T08:46:08.931Z,23.60
2022-08-19T08:48:57.123Z,21.55
2022-08-19T08:51:34.874Z,24.42
2022-08-19T08:54:05.317Z,20.70
2022-08-19T08:59:25.652Z,22.85
2022-08-19T09:01:52.179Z,22.88
2022-08-19T09:04:19.316Z,23.23
2022-08-19T09:07:18.652Z,22.63
2022-08-19T09:10:02.961Z,22.70
2022-08-19T09:12:43.099Z,24.50
2022-08-19T09:15:14.020Z,21.50
2022-08-19T09:17:40.531Z,22.33
2022-08-19T09:20:14.890Z,23.92
2022-08-19T09:22:45.983Z,19.67
2022-08-19T09:25:16.710Z,18.80
2022-08-19T09:27:43.811Z,17.38
2022-08-19T09:30:20.310Z,19.83
2022-08-19T09:32:46.748Z,19.65
2022-08-19T09:35:14.892Z,19.15
2022-08-19T09:37:43.769Z,19.42
2022-08-19T09:40:12.345Z,16.83
2022-08-19T09:42:39.266Z,17.20
2022-08-19T09:45:18.954Z,18.85
2022-08-19T09:47:45.493Z,18.95
2022-08-19T09:50:16.654Z,17.98
2022-08-19T09:52:55.264Z,18.75
2022-08-19T09:55:25.049Z,19.45
2022-08-19T09:57:58.998Z,20.13
2022-08-19T10:00:25.447Z,19.17
2022-08-19T10:02:51.884Z,21.02
2022-08-19T10:05:38.441Z,19.08
2022-08-19T10:08:13.548Z,20.42
2022-08-19T10:10:44.232Z,21.30
2022-08-19T10:13:15.377Z,19.02
2022-08-19T10:15:47.168Z,21.67
2022-08-19T10:18:16.136Z,19.90
2022-08-19T10:20:42.799Z,21.77
2022-08-19T10:23:10.249Z,21.77
2022-08-19T10:25:36.961Z,21.48
2022-08-19T10:28:06.983Z,21.55
2022-08-19T10:30:37.687Z,23.55
2022-08-19T10:33:08.567Z,20.55
2022-08-19T10:35:42.535Z,23.77
2022-08-19T10:38:28.947Z,20.42
2022-08-19T10:40:59.305Z,21.55
2022-08-19T10:43:25.923Z,21.92
2022-08-19T10:46:00.187Z,24.45
2022-08-19T10:48:26.861Z,20.50
2022-08-19T10:51:12.448Z,19.98
2022-08-19T10:53:49.802Z,24.25
2022-08-19T10:56:35.888Z,21.88
2022-08-19T10:59:04.071Z,18.50
2022-08-19T11:01:31.905Z,17.95
2022-08-19T11:03:58.531Z,17.55
2022-08-19T11:06:28.407Z,17.80
2022-08-19T11:08:55.863Z,16.33
2022-08-19T11:11:23.130Z,17.55
2022-08-19T11:13:50.919Z,18.38
2022-08-19T11:16:23.456Z,17.33
2022-08-19T11:18:53.910Z,16.55
2022-08-19T11:21:25.635Z,16.15
2022-08-19T11:23:56.691Z,16.45
2022-08-19T11:26:24.411Z,18.85
2022-08-19T11:28:55.365Z,15.93
2022-08-19T11:31:25.023Z,16.00
2022-08-19T11:33:58.112Z,16.38
2022-08-19T11:36:24.574Z,14.32
2022-08-19T11:38:51.448Z,14.40
2022-08-19T11:41:20.647Z,13.55
2022-08-19T11:43:47.651Z,15.02
2022-08-19T11:46:16.549Z,13.82
2022-08-19T11:48:43.902Z,13.15
2022-08-19T11:51:13.801Z,14.35
2022-08-19T11:53:40.537Z,16.33
2022-08-19T11:56:08.981Z,16.02
2022-08-19T11:58:36.537Z,14.90
2022-08-19T12:01:08.247Z,14.60
2022-08-19T12:03:35.156Z,12.82
2022-08-19T12:06:10.377Z,16.08
2022-08-19T12:08:37.009Z,14.70
2022-08-19T12:11:03.434Z,13.25
2022-08-19T12:13:31.650Z,11.65
2022-08-19T12:15:59.181Z,11.65
2022-08-19T12:18:25.888Z,11.80
2022-08-19T12:20:53.976Z,12.30
2022-08-19T12:23:20.419Z,11.82
2022-08-19T12:25:52.480Z,13.65
2022-08-19T12:28:24.571Z,12.68
2022-08-19T12:30:52.164Z,12.82
2022-08-19T12:33:20.490Z,12.10
2022-08-19T12:35:47.484Z,12.18
2022-08-19T12:38:15.583Z,13.05
2022-08-19T12:40:45.993Z,12.70
2022-08-19T12:43:12.598Z,15.75
2022-08-19T12:45:39.027Z,19.40
2022-08-19T12:48:33.858Z,24.00
2022-08-19T12:50:54.294Z,27.20
2022-08-19T12:53:20.727Z,33.25
2022-08-19T12:55:47.345Z,30.27
2022-08-19T12:58:13.787Z,31.33
2022-08-19T13:00:40.690Z,27.63
2022-08-19T13:03:07.151Z,30.00
2022-08-19T13:05:35.071Z,27.98
2022-08-19T13:08:01.881Z,29.15
2022-08-19T13:10:36.791Z,26.73
2022-08-19T13:13:09.569Z,27.25
2022-08-19T13:15:40.524Z,27.50
2022-08-19T13:18:09.447Z,26.58
2022-08-19T13:20:36.591Z,26.17
2022-08-19T13:23:03.085Z,26.92
2022-08-19T13:25:29.515Z,26.45
2022-08-19T13:27:56.179Z,25.70
2022-08-19T13:30:41.648Z,25.25
2022-08-19T13:33:11.923Z,25.23
2022-08-19T13:35:40.205Z,22.42
2022-08-19T13:38:11.849Z,21.92
2022-08-19T13:40:39.053Z,25.20
2022-08-19T13:43:17.851Z,20.30
2022-08-19T13:45:56.858Z,20.55
2022-08-19T13:48:25.829Z,21.10
2022-08-19T13:50:52.401Z,19.08
2022-08-19T13:53:19.679Z,17.60
2022-08-19T13:55:46.437Z,17.75
2022-08-19T13:58:14.338Z,15.75
2022-08-19T14:00:44.668Z,16.13
2022-08-19T14:03:12.046Z,15.52
2022-08-19T14:05:38.690Z,15.95
2022-08-19T14:08:05.176Z,16.45
2022-08-19T14:10:32.475Z,20.73
2022-08-19T14:13:02.253Z,22.95
2022-08-19T14:15:30.182Z,23.90
2022-08-19T14:17:57.076Z,26.65
2022-08-19T14:20:25.867Z,25.73
2022-08-19T14:22:53.740Z,25.15
2022-08-19T14:25:23.783Z,22.75
2022-08-19T14:27:50.317Z,24.52
2022-08-19T14:30:20.489Z,24.77
2022-08-19T14:32:46.928Z,24.67
2022-08-19T14:35:15.778Z,25.88
2022-08-19T14:37:45.492Z,22.08
2022-08-19T14:40:14.875Z,24.55
2022-08-19T14:42:42.235Z,22.77
2022-08-19T14:45:09.442Z,21.27
2022-08-19T14:47:36.138Z,22.88
2022-08-19T14:50:10.480Z,26.70
2022-08-19T14:52:44.521Z,24.73
2022-08-19T14:55:10.943Z,23.98
2022-08-19T14:57:37.514Z,23.00
2022-08-19T15:00:05.217Z,22.05
2022-08-19T15:02:34.852Z,23.85
2022-08-19T15:05:02.486Z,21.90
2022-08-19T15:07:30.272Z,21.35
2022-08-19T15:09:57.634Z,20.50
2022-08-19T15:12:24.941Z,18.95
2022-08-19T15:14:55.151Z,20.08
2022-08-19T15:17:43.636Z,18.05
2022-08-19T15:20:13.432Z,17.92
2022-08-19T15:22:40.908Z,18.67
2022-08-19T15:25:08.646Z,15.55
2022-08-19T15:30:09.214Z,15.07
2022-08-19T15:32:37.228Z,13.68
2022-08-19T15:35:05.469Z,13.88
2022-08-19T15:37:31.938Z,15.65
2022-08-19T15:40:01.076Z,13.75
2022-08-19T15:42:29.551Z,17.27
2022-08-19T15:44:57.243Z,13.23
2022-08-19T15:47:34.618Z,12.07
2022-08-19T15:50:17.284Z,11.80
2022-08-19T15:52:55.796Z,11.85
2022-08-19T15:55:32.523Z,11.65
2022-08-19T15:58:31.961Z,12.25
2022-08-19T16:01:20.880Z,11.20
2022-08-19T16:04:14.053Z,12.18
2022-08-19T16:06:43.922Z,12.20
2022-08-19T16:09:10.419Z,11.10
2022-08-19T16:11:39.955Z,9.90
2022-08-19T16:14:09.266Z,10.45
2022-08-19T16:16:37.051Z,8.85
2022-08-19T16:19:10.323Z,11.43
2022-08-19T16:21:39.581Z,10.25
2022-08-19T16:24:10.218Z,8.53
2022-08-19T16:26:36.723Z,9.73
2022-08-19T16:29:08.735Z,9.13
2022-08-19T16:31:39.592Z,10.18
2022-08-19T16:34:06.691Z,9.73
2022-08-19T16:36:33.496Z,10.48
2022-08-19T16:39:00.470Z,10.40
2022-08-19T16:41:27.902Z,10.48
2022-08-19T16:43:55.286Z,11.18
2022-08-19T16:46:23.323Z,10.00
2022-08-19T16:48:54.222Z,10.52
2022-08-19T16:51:22.596Z,9.35
2022-08-19T16:53:49.070Z,10.88
2022-08-19T16:56:15.910Z,9.75
2022-08-19T16:58:43.203Z,12.38
2022-08-19T17:01:10.923Z,9.88
2022-08-19T17:03:39.876Z,9.77
2022-08-19T17:06:20.886Z,10.48
2022-08-19T17:08:52.482Z,12.52
2022-08-19T17:11:21.099Z,12.02
2022-08-19T17:13:50.259Z,15.07
2022-08-19T17:16:22.327Z,13.82
2022-08-19T17:18:52.696Z,15.10
2022-08-19T17:21:25.498Z,14.23
2022-08-19T17:23:51.928Z,18.48
2022-08-19T17:26:18.822Z,25.83
2022-08-19T17:28:48.627Z,24.27
2022-08-19T17:31:15.674Z,27.83
2022-08-19T17:33:42.300Z,32.72
2022-08-19T17:36:08.924Z,31.15
2022-08-19T17:38:35.884Z,30.65
2022-08-19T17:41:05.829Z,35.97
2022-08-19T17:43:34.571Z,32.17
2022-08-19T17:46:04.760Z,33.42
2022-08-19T17:48:35.424Z,32.25
2022-08-19T17:51:13.781Z,35.70
2022-08-19T17:53:40.947Z,37.13
2022-08-19T17:56:07.410Z,35.33
2022-08-19T17:58:33.886Z,33.58
2022-08-19T18:01:02.743Z,34.50
2022-08-19T18:03:30.367Z,36.33
2022-08-19T18:05:57.131Z,39.03
2022-08-19T18:08:23.932Z,35.35
2022-08-19T18:10:50.772Z,37.00
2022-08-19T18:13:18.098Z,39.42
2022-08-19T18:15:44.731Z,40.38
2022-08-19T18:18:15.005Z,38.67
2022-08-19T18:20:42.450Z,36.97
2022-08-19T18:23:44.317Z,40.38
2022-08-19T18:25:55.744Z,39.80
2022-08-19T18:28:23.775Z,39.65
2022-08-19T18:30:50.210Z,34.70
2022-08-19T18:33:17.105Z,32.55
2022-08-19T18:35:46.636Z,29.13
2022-08-19T18:38:34.069Z,30.25
2022-08-19T18:41:19.274Z,30.27
2022-08-19T18:44:04.711Z,28.33
2022-08-19T18:46:49.514Z,26.95
2022-08-19T18:49:25.382Z,27.48
2022-08-19T18:51:52.115Z,27.95
2022-08-19T18:54:18.760Z,32.88
2022-08-19T18:56:45.419Z,27.10
2022-08-19T18:59:14.602Z,27.23
2022-08-19T19:01:52.093Z,27.35
2022-08-19T19:04:21.599Z,25.52
2022-08-19T19:06:48.694Z,25.52
2022-08-19T19:09:18.678Z,25.33
2022-08-19T19:11:53.368Z,26.20
2022-08-19T19:14:48.183Z,25.65
2022-08-19T19:17:14.891Z,25.10
2022-08-19T19:19:42.809Z,23.67
2022-08-19T19:22:17.160Z,25.77
2022-08-19T19:24:46.593Z,27.00
2022-08-19T19:27:15.882Z,29.55
2022-08-19T19:29:42.652Z,29.70
2022-08-19T19:32:16.470Z,32.65
2022-08-19T19:34:43.248Z,32.25
2022-08-19T19:37:09.672Z,31.15
2022-08-19T19:39:46.620Z,29.95
2022-08-19T19:42:19.978Z,37.22
2022-08-19T19:44:52.183Z,32.30
2022-08-19T19:47:19.764Z,28.98
2022-08-19T19:52:38.130Z,34.00
2022-08-19T19:55:05.174Z,35.30
2022-08-19T19:57:31.600Z,37.67
2022-08-19T19:59:58.690Z,30.50
2022-08-19T20:02:25.805Z,31.02
2022-08-19T20:04:53.595Z,35.92
2022-08-19T20:07:39.971Z,31.98
2022-08-19T20:10:06.664Z,37.28
2022-08-19T20:12:33.095Z,36.35
2022-08-19T20:14:59.550Z,38.60
2022-08-19T20:17:26.097Z,34.17
2022-08-19T20:19:53.422Z,33.38
2022-08-19T20:22:19.858Z,32.20
2022-08-19T20:24:46.450Z,29.20
2022-08-19T20:27:12.867Z,30.27
2022-08-19T20:29:41.655Z,32.35
2022-08-19T20:32:12.351Z,25.27
2022-08-19T20:34:40.359Z,25.80
2022-08-19T20:37:09.153Z,26.83
2022-08-19T20:39:35.965Z,30.13
2022-08-19T20:42:03.445Z,25.48
2022-08-19T20:44:29.904Z,29.95
2022-08-19T20:46:59.378Z,26.63
2022-08-19T20:49:27.769Z,32.88
2022-08-19T20:51:55.828Z,25.88
2022-08-19T20:54:22.383Z,27.02
2022-08-19T20:56:48.809Z,24.63
2022-08-19T20:59:15.415Z,26.02
2022-08-19T21:01:42.005Z,27.23
2022-08-19T21:04:08.423Z,23.75
2022-08-19T21:06:34.839Z,28.77
2022-08-19T21:09:01.266Z,22.58
2022-08-19T21:11:27.837Z,32.00
2022-08-19T21:13:54.285Z,25.17
2022-08-19T21:16:20.729Z,28.00
2022-08-19T21:18:47.790Z,23.88
2022-08-19T21:21:14.460Z,27.58
2022-08-19T21:23:40.961Z,25.67
2022-08-19T21:26:08.921Z,25.15
2022-08-19T21:28:36.441Z,26.58
2022-08-19T21:31:05.277Z,26.85
2022-08-19T21:33:32.180Z,35.53
2022-08-19T21:36:00.005Z,32.72
2022-08-19T21:38:26.871Z,29.58
2022-08-19T21:40:53.466Z,34.50
2022-08-19T21:43:19.983Z,30.58
2022-08-19T21:45:47.483Z,30.88
2022-08-19T21:48:15.066Z,32.58
2022-08-19T21:50:42.665Z,32.42
2022-08-19T21:53:14.007Z,35.38
2022-08-19T21:55:44.171Z,32.78
2022-08-19T21:58:11.735Z,36.70
2022-08-19T22:00:39.248Z,39.35
2022-08-19T22:03:40.251Z,36.08
2022-08-19T22:08:33.042Z,34.63
2022-08-19T22:10:59.468Z,39.72
2022-08-19T22:13:26.546Z,37.33
2022-08-19T22:15:55.001Z,40.67
2022-08-19T22:18:21.447Z,35.50
2022-08-19T22:20:47.957Z,39.17
2022-08-19T22:23:14.545Z,39.95
2022-08-19T22:25:45.336Z,38.17
2022-08-19T22:30:42.878Z,40.47
2022-08-19T22:33:16.884Z,44.70
2022-08-19T22:35:45.123Z,41.97
2022-08-19T22:38:12.701Z,43.80
2022-08-19T22:40:45.967Z,36.83
2022-08-19T22:43:16.300Z,41.00
2022-08-19T22:45:43.778Z,39.55
2022-08-19T22:48:12.277Z,40.17
2022-08-19T22:50:40.389Z,37.75
2022-08-19T22:53:08.220Z,45.20
2022-08-19T22:55:36.358Z,40.08
2022-08-19T22:58:03.592Z,42.15
2022-08-19T23:00:31.571Z,42.53
2022-08-19T23:02:58.367Z,50.58
2022-08-19T23:05:26.863Z,42.45
2022-08-19T23:07:53.726Z,47.17
2022-08-19T23:10:27.660Z,45.22
2022-08-19T23:12:56.745Z,39.00
2022-08-19T23:15:25.922Z,39.35
2022-08-19T23:17:54.451Z,44.03
2022-08-19T23:20:23.217Z,36.83
2022-08-19T23:22:51.459Z,41.42
2022-08-19T23:25:21.335Z,39.65
2022-08-19T23:28:06.258Z,43.43
2022-08-19T23:30:35.618Z,35.03
2022-08-19T23:33:12.315Z,39.42
2022-08-19T23:35:40.911Z,34.88
2022-08-19T23:38:09.015Z,34.67
2022-08-19T23:40:36.842Z,35.33
2022-08-19T23:43:08.211Z,38.97
2022-08-19T23:45:38.860Z,35.70
2022-08-19T23:48:06.948Z,35.80
2022-08-19T23:50:34.315Z,31.70
2022-08-19T23:53:01.592Z,26.20
2022-08-19T23:55:34.861Z,30.45
2022-08-19T23:58:02.139Z,25.08
